sensor_id;sensor_type;location;lat;lon;timestamp;temperature;humidity
68139;DHT22;54940;50.842;4.410;2023-04-24T00:00:17;10.00;99.90
68139;DHT22;54940;50.842;4.410;2023-04-24T00:02:43;10.10;99.90
68139;DHT22;54940;50.842;4.410;2023-04-24T00:05:16;10.10;99.90
68139;DHT22;54940;50.842;4.410;2023-04-24T00:07:44;10.10;99.90
68139;DHT22;54940;50.842;4.410;2023-04-24T00:10:10;10.00;99.90
68139;DHT22;54940;50.842;4.410;2023-04-24T00:12:39;10.00;99.90
68139;DHT22;54940;50.842;4.410;2023-04-24T00:15:05;10.00;99.90
68139;DHT22;54940;50.842;4.410;2023-04-24T00:17:31;10.00;99.90
68139;DHT22;54940;50.842;4.410;2023-04-24T00:19:57;9.90;99.90
68139;DHT22;54940;50.842;4.410;2023-04-24T00:22:26;9.80;99.90
68139;DHT22;54940;50.842;4.410;2023-04-24T00:24:52;9.80;99.90
68139;DHT22;54940;50.842;4.410;2023-04-24T00:27:18;9.80;99.90
68139;DHT22;54940;50.842;4.410;2023-04-24T00:29:44;9.70;99.90
68139;DHT22;54940;50.842;4.410;2023-04-24T00:32:12;9.80;99.90
68139;DHT22;54940;50.842;4.410;2023-04-24T00:34:37;9.80;99.90
68139;DHT22;54940;50.842;4.410;2023-04-24T00:37:03;9.70;99.90
68139;DHT22;54940;50.842;4.410;2023-04-24T00:39:29;9.70;99.90
68139;DHT22;54940;50.842;4.410;2023-04-24T00:41:55;9.70;99.90
68139;DHT22;54940;50.842;4.410;2023-04-24T00:44:22;9.80;99.90
68139;DHT22;54940;50.842;4.410;2023-04-24T00:46:48;9.60;99.90
68139;DHT22;54940;50.842;4.410;2023-04-24T00:49:18;9.70;99.90
68139;DHT22;54940;50.842;4.410;2023-04-24T00:51:44;9.70;99.90
68139;DHT22;54940;50.842;4.410;2023-04-24T00:54:12;9.70;99.90
68139;DHT22;54940;50.842;4.410;2023-04-24T00:56:41;9.80;99.90
68139;DHT22;54940;50.842;4.410;2023-04-24T00:59:08;9.70;99.90
68139;DHT22;54940;50.842;4.410;2023-04-24T01:01:33;9.70;99.90
68139;DHT22;54940;50.842;4.410;2023-04-24T01:03:59;9.60;99.90
68139;DHT22;54940;50.842;4.410;2023-04-24T01:06:28;9.70;99.90
68139;DHT22;54940;50.842;4.410;2023-04-24T01:08:57;9.60;99.90
68139;DHT22;54940;50.842;4.410;2023-04-24T01:11:24;9.60;99.90
68139;DHT22;54940;50.842;4.410;2023-04-24T01:13:51;9.70;99.90
68139;DHT22;54940;50.842;4.410;2023-04-24T01:16:16;9.70;99.90
68139;DHT22;54940;50.842;4.410;2023-04-24T01:18:43;9.60;99.90
68139;DHT22;54940;50.842;4.410;2023-04-24T01:21:10;9.70;99.90
68139;DHT22;54940;50.842;4.410;2023-04-24T01:23:38;9.60;99.90
68139;DHT22;54940;50.842;4.410;2023-04-24T01:26:04;9.60;99.90
68139;DHT22;54940;50.842;4.410;2023-04-24T01:28:30;9.50;99.90
68139;DHT22;54940;50.842;4.410;2023-04-24T01:30:56;9.40;99.90
68139;DHT22;54940;50.842;4.410;2023-04-24T01:33:22;9.50;99.90
68139;DHT22;54940;50.842;4.410;2023-04-24T01:35:48;9.40;99.90
68139;DHT22;54940;50.842;4.410;2023-04-24T01:38:14;9.40;99.90
68139;DHT22;54940;50.842;4.410;2023-04-24T01:40:40;9.40;99.90
68139;DHT22;54940;50.842;4.410;2023-04-24T01:43:06;9.40;99.90
68139;DHT22;54940;50.842;4.410;2023-04-24T01:45:37;9.40;99.90
68139;DHT22;54940;50.842;4.410;2023-04-24T01:48:03;9.40;99.90
68139;DHT22;54940;50.842;4.410;2023-04-24T01:50:28;9.30;99.90
68139;DHT22;54940;50.842;4.410;2023-04-24T01:52:54;9.30;99.90
68139;DHT22;54940;50.842;4.410;2023-04-24T01:55:20;9.40;99.90
68139;DHT22;54940;50.842;4.410;2023-04-24T01:57:46;9.40;99.90
68139;DHT22;54940;50.842;4.410;2023-04-24T02:00:12;9.40;99.90
68139;DHT22;54940;50.842;4.410;2023-04-24T02:02:39;9.40;99.90
68139;DHT22;54940;50.842;4.410;2023-04-24T02:05:07;9.30;99.90
68139;DHT22;54940;50.842;4.410;2023-04-24T02:07:32;9.30;99.90
68139;DHT22;54940;50.842;4.410;2023-04-24T02:09:58;9.30;99.90
68139;DHT22;54940;50.842;4.410;2023-04-24T02:12:24;9.30;99.90
68139;DHT22;54940;50.842;4.410;2023-04-24T02:14:49;9.30;99.90
68139;DHT22;54940;50.842;4.410;2023-04-24T02:17:15;9.30;99.90
68139;DHT22;54940;50.842;4.410;2023-04-24T02:19:42;9.30;99.90
68139;DHT22;54940;50.842;4.410;2023-04-24T02:22:07;9.30;99.90
68139;DHT22;54940;50.842;4.410;2023-04-24T02:24:33;9.30;99.90
68139;DHT22;54940;50.842;4.410;2023-04-24T02:26:59;9.40;99.90
68139;DHT22;54940;50.842;4.410;2023-04-24T02:29:25;9.30;99.90
68139;DHT22;54940;50.842;4.410;2023-04-24T02:31:51;9.30;99.90
68139;DHT22;54940;50.842;4.410;2023-04-24T02:34:19;9.30;99.90
68139;DHT22;54940;50.842;4.410;2023-04-24T02:36:45;9.30;99.90
68139;DHT22;54940;50.842;4.410;2023-04-24T02:39:10;9.30;99.90
68139;DHT22;54940;50.842;4.410;2023-04-24T02:41:36;9.30;99.90
68139;DHT22;54940;50.842;4.410;2023-04-24T02:44:02;9.30;99.90
68139;DHT22;54940;50.842;4.410;2023-04-24T02:46:27;9.30;99.90
68139;DHT22;54940;50.842;4.410;2023-04-24T02:48:53;9.30;99.90
68139;DHT22;54940;50.842;4.410;2023-04-24T02:51:19;9.40;99.90
68139;DHT22;54940;50.842;4.410;2023-04-24T02:53:47;9.40;99.90
68139;DHT22;54940;50.842;4.410;2023-04-24T02:56:13;9.40;99.90
68139;DHT22;54940;50.842;4.410;2023-04-24T02:58:38;9.30;99.90
68139;DHT22;54940;50.842;4.410;2023-04-24T03:01:07;9.30;99.90
68139;DHT22;54940;50.842;4.410;2023-04-24T03:03:35;9.20;99.90
68139;DHT22;54940;50.842;4.410;2023-04-24T03:06:01;9.10;99.90
68139;DHT22;54940;50.842;4.410;2023-04-24T03:08:27;9.20;99.90
68139;DHT22;54940;50.842;4.410;2023-04-24T03:10:52;9.10;99.90
68139;DHT22;54940;50.842;4.410;2023-04-24T03:13:18;9.10;99.90
68139;DHT22;54940;50.842;4.410;2023-04-24T03:15:44;9.20;99.90
68139;DHT22;54940;50.842;4.410;2023-04-24T03:18:10;9.20;99.90
68139;DHT22;54940;50.842;4.410;2023-04-24T03:20:36;9.20;99.90
68139;DHT22;54940;50.842;4.410;2023-04-24T03:23:03;9.30;99.90
68139;DHT22;54940;50.842;4.410;2023-04-24T03:25:28;9.20;99.90
68139;DHT22;54940;50.842;4.410;2023-04-24T03:27:54;9.20;99.90
68139;DHT22;54940;50.842;4.410;2023-04-24T03:30:20;9.20;99.90
68139;DHT22;54940;50.842;4.410;2023-04-24T03:32:46;9.20;99.90
68139;DHT22;54940;50.842;4.410;2023-04-24T03:35:11;9.20;99.90
68139;DHT22;54940;50.842;4.410;2023-04-24T03:37:37;9.20;99.90
68139;DHT22;54940;50.842;4.410;2023-04-24T03:40:05;9.20;99.90
68139;DHT22;54940;50.842;4.410;2023-04-24T03:42:32;9.20;99.90
68139;DHT22;54940;50.842;4.410;2023-04-24T03:44:58;9.20;99.90
68139;DHT22;54940;50.842;4.410;2023-04-24T03:47:23;9.20;99.90
68139;DHT22;54940;50.842;4.410;2023-04-24T03:49:52;9.20;99.90
68139;DHT22;54940;50.842;4.410;2023-04-24T03:52:19;9.20;99.90
68139;DHT22;54940;50.842;4.410;2023-04-24T03:54:44;9.20;99.90
68139;DHT22;54940;50.842;4.410;2023-04-24T03:57:12;9.20;99.90
68139;DHT22;54940;50.842;4.410;2023-04-24T03:59:38;9.20;99.90
68139;DHT22;54940;50.842;4.410;2023-04-24T04:02:03;9.20;99.90
68139;DHT22;54940;50.842;4.410;2023-04-24T04:04:29;9.30;99.90
68139;DHT22;54940;50.842;4.410;2023-04-24T04:06:54;9.30;99.90
68139;DHT22;54940;50.842;4.410;2023-04-24T04:09:20;9.40;99.90
68139;DHT22;54940;50.842;4.410;2023-04-24T04:11:46;9.30;99.90
68139;DHT22;54940;50.842;4.410;2023-04-24T04:14:12;9.30;99.90
68139;DHT22;54940;50.842;4.410;2023-04-24T04:16:37;9.40;99.90
68139;DHT22;54940;50.842;4.410;2023-04-24T04:19:04;9.40;99.90
68139;DHT22;54940;50.842;4.410;2023-04-24T04:21:29;9.50;99.90
68139;DHT22;54940;50.842;4.410;2023-04-24T04:23:56;9.50;99.90
68139;DHT22;54940;50.842;4.410;2023-04-24T04:26:22;9.50;99.90
68139;DHT22;54940;50.842;4.410;2023-04-24T04:28:51;9.50;99.90
68139;DHT22;54940;50.842;4.410;2023-04-24T04:31:17;9.50;99.90
68139;DHT22;54940;50.842;4.410;2023-04-24T04:33:42;9.50;99.90
68139;DHT22;54940;50.842;4.410;2023-04-24T04:36:08;9.40;99.90
68139;DHT22;54940;50.842;4.410;2023-04-24T04:38:34;9.40;99.90
68139;DHT22;54940;50.842;4.410;2023-04-24T04:41:00;9.40;99.90
68139;DHT22;54940;50.842;4.410;2023-04-24T04:43:26;9.40;99.90
68139;DHT22;54940;50.842;4.410;2023-04-24T04:45:54;9.30;99.90
68139;DHT22;54940;50.842;4.410;2023-04-24T04:48:21;9.30;99.90
68139;DHT22;54940;50.842;4.410;2023-04-24T04:50:49;9.30;99.90
68139;DHT22;54940;50.842;4.410;2023-04-24T04:53:15;9.30;99.90
68139;DHT22;54940;50.842;4.410;2023-04-24T04:55:41;9.30;99.90
68139;DHT22;54940;50.842;4.410;2023-04-24T04:58:07;9.20;99.90
68139;DHT22;54940;50.842;4.410;2023-04-24T05:00:33;9.30;99.90
68139;DHT22;54940;50.842;4.410;2023-04-24T05:03:01;9.30;99.90
68139;DHT22;54940;50.842;4.410;2023-04-24T05:05:27;9.30;99.90
68139;DHT22;54940;50.842;4.410;2023-04-24T05:07:55;9.30;99.90
68139;DHT22;54940;50.842;4.410;2023-04-24T05:10:24;9.30;99.90
68139;DHT22;54940;50.842;4.410;2023-04-24T05:12:50;9.30;99.90
68139;DHT22;54940;50.842;4.410;2023-04-24T05:15:15;9.30;99.90
68139;DHT22;54940;50.842;4.410;2023-04-24T05:17:41;9.30;99.90
68139;DHT22;54940;50.842;4.410;2023-04-24T05:20:07;9.40;99.90
68139;DHT22;54940;50.842;4.410;2023-04-24T05:22:33;9.30;99.90
68139;DHT22;54940;50.842;4.410;2023-04-24T05:24:59;9.30;99.90
68139;DHT22;54940;50.842;4.410;2023-04-24T05:27:25;9.30;99.90
68139;DHT22;54940;50.842;4.410;2023-04-24T05:29:50;9.20;99.90
68139;DHT22;54940;50.842;4.410;2023-04-24T05:32:16;9.20;99.90
68139;DHT22;54940;50.842;4.410;2023-04-24T05:34:42;9.20;99.90
68139;DHT22;54940;50.842;4.410;2023-04-24T05:37:08;9.20;99.90
68139;DHT22;54940;50.842;4.410;2023-04-24T05:39:35;9.20;99.90
68139;DHT22;54940;50.842;4.410;2023-04-24T05:42:01;9.20;99.90
68139;DHT22;54940;50.842;4.410;2023-04-24T05:44:27;9.20;99.90
68139;DHT22;54940;50.842;4.410;2023-04-24T05:46:56;9.20;99.90
68139;DHT22;54940;50.842;4.410;2023-04-24T05:49:22;9.20;99.90
68139;DHT22;54940;50.842;4.410;2023-04-24T05:51:48;9.20;99.90
68139;DHT22;54940;50.842;4.410;2023-04-24T05:54:16;9.30;99.90
68139;DHT22;54940;50.842;4.410;2023-04-24T05:56:44;9.30;99.90
68139;DHT22;54940;50.842;4.410;2023-04-24T05:59:09;9.30;99.90
68139;DHT22;54940;50.842;4.410;2023-04-24T06:01:35;9.20;99.90
68139;DHT22;54940;50.842;4.410;2023-04-24T06:04:02;9.20;99.90
68139;DHT22;54940;50.842;4.410;2023-04-24T06:06:28;9.20;99.90
68139;DHT22;54940;50.842;4.410;2023-04-24T06:08:54;9.20;99.90
68139;DHT22;54940;50.842;4.410;2023-04-24T06:11:23;9.10;99.90
68139;DHT22;54940;50.842;4.410;2023-04-24T06:13:48;9.00;99.90
68139;DHT22;54940;50.842;4.410;2023-04-24T06:16:14;9.00;99.90
68139;DHT22;54940;50.842;4.410;2023-04-24T06:18:40;9.10;99.90
68139;DHT22;54940;50.842;4.410;2023-04-24T06:21:05;9.20;99.90
68139;DHT22;54940;50.842;4.410;2023-04-24T06:23:31;9.10;99.90
68139;DHT22;54940;50.842;4.410;2023-04-24T06:25:58;9.10;99.90
68139;DHT22;54940;50.842;4.410;2023-04-24T06:28:25;9.10;99.90
68139;DHT22;54940;50.842;4.410;2023-04-24T06:30:51;9.00;99.90
68139;DHT22;54940;50.842;4.410;2023-04-24T06:33:16;9.00;99.90
68139;DHT22;54940;50.842;4.410;2023-04-24T06:35:44;9.00;99.90
68139;DHT22;54940;50.842;4.410;2023-04-24T06:38:10;9.00;99.90
68139;DHT22;54940;50.842;4.410;2023-04-24T06:40:36;9.00;99.90
68139;DHT22;54940;50.842;4.410;2023-04-24T06:43:02;9.00;99.90
68139;DHT22;54940;50.842;4.410;2023-04-24T06:45:29;9.10;99.90
68139;DHT22;54940;50.842;4.410;2023-04-24T06:47:54;9.10;99.90
68139;DHT22;54940;50.842;4.410;2023-04-24T06:50:20;9.10;99.90
68139;DHT22;54940;50.842;4.410;2023-04-24T06:52:46;9.10;99.90
68139;DHT22;54940;50.842;4.410;2023-04-24T06:55:12;9.10;99.90
68139;DHT22;54940;50.842;4.410;2023-04-24T06:57:40;9.10;99.90
68139;DHT22;54940;50.842;4.410;2023-04-24T07:00:06;9.20;99.90
68139;DHT22;54940;50.842;4.410;2023-04-24T07:02:32;9.20;99.90
68139;DHT22;54940;50.842;4.410;2023-04-24T07:04:58;9.20;99.90
68139;DHT22;54940;50.842;4.410;2023-04-24T07:07:23;9.30;99.90
68139;DHT22;54940;50.842;4.410;2023-04-24T07:09:49;9.40;99.90
68139;DHT22;54940;50.842;4.410;2023-04-24T07:12:16;9.30;99.90
68139;DHT22;54940;50.842;4.410;2023-04-24T07:14:42;9.40;99.90
68139;DHT22;54940;50.842;4.410;2023-04-24T07:17:08;9.40;99.90
68139;DHT22;54940;50.842;4.410;2023-04-24T07:19:34;9.40;99.90
68139;DHT22;54940;50.842;4.410;2023-04-24T07:22:01;9.40;99.90
68139;DHT22;54940;50.842;4.410;2023-04-24T07:24:27;9.40;99.90
68139;DHT22;54940;50.842;4.410;2023-04-24T07:26:53;9.60;99.90
68139;DHT22;54940;50.842;4.410;2023-04-24T07:29:19;9.60;99.90
68139;DHT22;54940;50.842;4.410;2023-04-24T07:31:45;9.80;99.90
68139;DHT22;54940;50.842;4.410;2023-04-24T07:34:11;9.90;99.90
68139;DHT22;54940;50.842;4.410;2023-04-24T07:36:36;9.80;99.90
68139;DHT22;54940;50.842;4.410;2023-04-24T07:39:06;9.90;99.90
68139;DHT22;54940;50.842;4.410;2023-04-24T07:41:32;9.90;99.90
68139;DHT22;54940;50.842;4.410;2023-04-24T07:43:58;9.90;99.90
68139;DHT22;54940;50.842;4.410;2023-04-24T07:46:24;10.00;99.90
68139;DHT22;54940;50.842;4.410;2023-04-24T07:48:50;10.10;99.90
68139;DHT22;54940;50.842;4.410;2023-04-24T07:51:16;10.00;99.90
68139;DHT22;54940;50.842;4.410;2023-04-24T07:53:43;9.90;99.90
68139;DHT22;54940;50.842;4.410;2023-04-24T07:56:09;9.80;99.90
68139;DHT22;54940;50.842;4.410;2023-04-24T07:58:35;9.80;99.90
68139;DHT22;54940;50.842;4.410;2023-04-24T08:01:01;9.80;99.90
68139;DHT22;54940;50.842;4.410;2023-04-24T08:03:27;9.80;99.90
68139;DHT22;54940;50.842;4.410;2023-04-24T08:05:52;9.90;99.90
68139;DHT22;54940;50.842;4.410;2023-04-24T08:08:21;10.00;99.90
68139;DHT22;54940;50.842;4.410;2023-04-24T08:10:47;10.10;99.90
68139;DHT22;54940;50.842;4.410;2023-04-24T08:13:12;10.10;99.90
68139;DHT22;54940;50.842;4.410;2023-04-24T08:15:38;10.00;99.90
68139;DHT22;54940;50.842;4.410;2023-04-24T08:18:04;10.00;99.90
68139;DHT22;54940;50.842;4.410;2023-04-24T08:20:30;10.00;99.90
68139;DHT22;54940;50.842;4.410;2023-04-24T08:22:56;10.10;99.90
68139;DHT22;54940;50.842;4.410;2023-04-24T08:25:22;10.00;99.90
68139;DHT22;54940;50.842;4.410;2023-04-24T08:27:49;10.00;99.90
68139;DHT22;54940;50.842;4.410;2023-04-24T08:30:14;10.30;99.90
68139;DHT22;54940;50.842;4.410;2023-04-24T08:32:40;10.50;99.90
68139;DHT22;54940;50.842;4.410;2023-04-24T08:35:06;10.50;99.90
68139;DHT22;54940;50.842;4.410;2023-04-24T08:37:35;10.50;99.90
68139;DHT22;54940;50.842;4.410;2023-04-24T08:40:02;10.40;99.90
68139;DHT22;54940;50.842;4.410;2023-04-24T08:42:32;10.40;99.90
68139;DHT22;54940;50.842;4.410;2023-04-24T08:44:59;10.40;99.90
68139;DHT22;54940;50.842;4.410;2023-04-24T08:47:25;10.40;99.90
68139;DHT22;54940;50.842;4.410;2023-04-24T08:49:52;10.50;99.90
68139;DHT22;54940;50.842;4.410;2023-04-24T08:52:18;11.00;99.90
68139;DHT22;54940;50.842;4.410;2023-04-24T08:54:46;11.40;99.90
68139;DHT22;54940;50.842;4.410;2023-04-24T08:57:14;11.70;99.90
68139;DHT22;54940;50.842;4.410;2023-04-24T08:59:43;11.80;99.90
68139;DHT22;54940;50.842;4.410;2023-04-24T09:02:10;12.10;99.90
68139;DHT22;54940;50.842;4.410;2023-04-24T09:04:37;12.30;99.90
68139;DHT22;54940;50.842;4.410;2023-04-24T09:07:06;12.40;99.90
68139;DHT22;54940;50.842;4.410;2023-04-24T09:09:32;12.30;99.90
68139;DHT22;54940;50.842;4.410;2023-04-24T09:11:58;12.60;99.90
68139;DHT22;54940;50.842;4.410;2023-04-24T09:14:27;13.00;99.90
68139;DHT22;54940;50.842;4.410;2023-04-24T09:16:56;13.00;99.90
68139;DHT22;54940;50.842;4.410;2023-04-24T09:19:22;12.90;99.90
68139;DHT22;54940;50.842;4.410;2023-04-24T09:21:48;12.90;99.90
68139;DHT22;54940;50.842;4.410;2023-04-24T09:24:21;12.90;99.90
68139;DHT22;54940;50.842;4.410;2023-04-24T09:26:56;13.00;99.90
68139;DHT22;54940;50.842;4.410;2023-04-24T09:29:27;12.90;99.90
68139;DHT22;54940;50.842;4.410;2023-04-24T09:31:53;12.70;99.90
68139;DHT22;54940;50.842;4.410;2023-04-24T09:34:24;12.40;99.90
68139;DHT22;54940;50.842;4.410;2023-04-24T09:36:50;12.20;99.90
68139;DHT22;54940;50.842;4.410;2023-04-24T09:39:17;12.00;99.90
68139;DHT22;54940;50.842;4.410;2023-04-24T09:41:55;11.90;99.90
68139;DHT22;54940;50.842;4.410;2023-04-24T09:44:27;11.80;99.90
68139;DHT22;54940;50.842;4.410;2023-04-24T09:46:57;11.80;99.90
68139;DHT22;54940;50.842;4.410;2023-04-24T09:52:05;11.90;99.90
68139;DHT22;54940;50.842;4.410;2023-04-24T09:54:31;12.20;99.90
68139;DHT22;54940;50.842;4.410;2023-04-24T09:56:59;12.30;99.90
68139;DHT22;54940;50.842;4.410;2023-04-24T09:59:28;12.20;99.90
68139;DHT22;54940;50.842;4.410;2023-04-24T10:01:55;11.90;99.90
68139;DHT22;54940;50.842;4.410;2023-04-24T10:04:25;11.70;99.90
68139;DHT22;54940;50.842;4.410;2023-04-24T10:06:53;11.70;99.90
68139;DHT22;54940;50.842;4.410;2023-04-24T10:09:20;11.80;99.90
68139;DHT22;54940;50.842;4.410;2023-04-24T10:11:49;12.10;99.90
68139;DHT22;54940;50.842;4.410;2023-04-24T10:14:20;12.10;99.90
68139;DHT22;54940;50.842;4.410;2023-04-24T10:16:46;12.10;99.90
68139;DHT22;54940;50.842;4.410;2023-04-24T10:19:16;12.00;99.90
68139;DHT22;54940;50.842;4.410;2023-04-24T10:21:44;12.10;99.90
68139;DHT22;54940;50.842;4.410;2023-04-24T10:24:17;12.20;99.90
68139;DHT22;54940;50.842;4.410;2023-04-24T10:26:44;12.20;99.90
68139;DHT22;54940;50.842;4.410;2023-04-24T10:29:12;12.10;99.90
68139;DHT22;54940;50.842;4.410;2023-04-24T10:31:38;12.10;99.90
68139;DHT22;54940;50.842;4.410;2023-04-24T10:34:05;12.00;99.90
68139;DHT22;54940;50.842;4.410;2023-04-24T10:36:33;11.90;99.90
68139;DHT22;54940;50.842;4.410;2023-04-24T10:39:01;11.90;99.90
68139;DHT22;54940;50.842;4.410;2023-04-24T10:41:27;11.90;99.90
68139;DHT22;54940;50.842;4.410;2023-04-24T10:44:05;12.00;99.90
68139;DHT22;54940;50.842;4.410;2023-04-24T10:46:32;12.00;99.90
68139;DHT22;54940;50.842;4.410;2023-04-24T10:49:04;12.10;99.90
68139;DHT22;54940;50.842;4.410;2023-04-24T10:52:02;12.50;99.90
68139;DHT22;54940;50.842;4.410;2023-04-24T10:54:44;12.60;99.90
68139;DHT22;54940;50.842;4.410;2023-04-24T10:59:47;12.50;99.90
68139;DHT22;54940;50.842;4.410;2023-04-24T11:02:16;12.30;99.90
68139;DHT22;54940;50.842;4.410;2023-04-24T11:04:42;12.30;99.90
68139;DHT22;54940;50.842;4.410;2023-04-24T11:07:09;12.10;99.90
68139;DHT22;54940;50.842;4.410;2023-04-24T11:09:35;12.10;99.90
68139;DHT22;54940;50.842;4.410;2023-04-24T11:12:10;12.00;99.90
68139;DHT22;54940;50.842;4.410;2023-04-24T11:17:36;11.90;99.90
68139;DHT22;54940;50.842;4.410;2023-04-24T11:20:17;11.90;99.90
68139;DHT22;54940;50.842;4.410;2023-04-24T11:22:42;11.90;99.90
68139;DHT22;54940;50.842;4.410;2023-04-24T11:25:09;12.10;99.90
68139;DHT22;54940;50.842;4.410;2023-04-24T11:27:44;12.00;99.90
68139;DHT22;54940;50.842;4.410;2023-04-24T11:30:17;12.20;99.90
68139;DHT22;54940;50.842;4.410;2023-04-24T11:32:47;12.30;99.90
68139;DHT22;54940;50.842;4.410;2023-04-24T11:37:49;12.70;99.90
68139;DHT22;54940;50.842;4.410;2023-04-24T11:40:16;12.70;99.90
68139;DHT22;54940;50.842;4.410;2023-04-24T11:42:43;12.60;99.90
68139;DHT22;54940;50.842;4.410;2023-04-24T11:45:11;12.60;99.90
68139;DHT22;54940;50.842;4.410;2023-04-24T11:47:38;12.60;99.90
68139;DHT22;54940;50.842;4.410;2023-04-24T11:50:06;12.70;99.90
68139;DHT22;54940;50.842;4.410;2023-04-24T11:52:33;12.70;99.90
68139;DHT22;54940;50.842;4.410;2023-04-24T11:55:02;12.70;99.90
68139;DHT22;54940;50.842;4.410;2023-04-24T11:57:29;12.70;99.90
68139;DHT22;54940;50.842;4.410;2023-04-24T12:00:00;12.70;99.90
68139;DHT22;54940;50.842;4.410;2023-04-24T12:02:27;13.00;99.90
68139;DHT22;54940;50.842;4.410;2023-04-24T12:04:53;13.30;99.90
68139;DHT22;54940;50.842;4.410;2023-04-24T12:07:20;13.40;99.90
68139;DHT22;54940;50.842;4.410;2023-04-24T12:10:06;13.30;99.90
68139;DHT22;54940;50.842;4.410;2023-04-24T12:12:32;13.30;99.90
68139;DHT22;54940;50.842;4.410;2023-04-24T12:14:58;13.20;99.90
68139;DHT22;54940;50.842;4.410;2023-04-24T12:17:32;13.10;99.90
68139;DHT22;54940;50.842;4.410;2023-04-24T12:20:05;13.30;99.90
68139;DHT22;54940;50.842;4.410;2023-04-24T12:22:52;13.50;99.90
68139;DHT22;54940;50.842;4.410;2023-04-24T12:25:25;13.60;99.90
68139;DHT22;54940;50.842;4.410;2023-04-24T12:27:55;13.80;99.90
68139;DHT22;54940;50.842;4.410;2023-04-24T12:30:27;14.20;99.90
68139;DHT22;54940;50.842;4.410;2023-04-24T12:32:58;14.50;99.90
68139;DHT22;54940;50.842;4.410;2023-04-24T12:35:26;14.60;99.90
68139;DHT22;54940;50.842;4.410;2023-04-24T12:37:52;14.40;99.90
68139;DHT22;54940;50.842;4.410;2023-04-24T12:40:19;14.20;99.90
68139;DHT22;54940;50.842;4.410;2023-04-24T12:42:50;14.20;99.90
68139;DHT22;54940;50.842;4.410;2023-04-24T12:45:17;14.30;99.90
68139;DHT22;54940;50.842;4.410;2023-04-24T12:47:46;14.50;99.90
68139;DHT22;54940;50.842;4.410;2023-04-24T12:50:15;14.80;99.90
68139;DHT22;54940;50.842;4.410;2023-04-24T12:52:42;15.10;99.90
68139;DHT22;54940;50.842;4.410;2023-04-24T12:55:10;15.10;99.90
68139;DHT22;54940;50.842;4.410;2023-04-24T12:57:38;14.90;99.90
68139;DHT22;54940;50.842;4.410;2023-04-24T13:00:07;15.00;99.90
68139;DHT22;54940;50.842;4.410;2023-04-24T13:02:33;15.10;99.90
68139;DHT22;54940;50.842;4.410;2023-04-24T13:04:59;15.10;99.90
68139;DHT22;54940;50.842;4.410;2023-04-24T13:07:26;15.30;99.90
68139;DHT22;54940;50.842;4.410;2023-04-24T13:09:53;15.70;99.90
68139;DHT22;54940;50.842;4.410;2023-04-24T13:12:19;15.90;99.90
68139;DHT22;54940;50.842;4.410;2023-04-24T13:14:47;16.00;99.90
68139;DHT22;54940;50.842;4.410;2023-04-24T13:17:13;16.20;99.90
68139;DHT22;54940;50.842;4.410;2023-04-24T13:19:41;16.60;99.90
68139;DHT22;54940;50.842;4.410;2023-04-24T13:22:09;16.80;99.90
68139;DHT22;54940;50.842;4.410;2023-04-24T13:24:35;16.80;99.90
68139;DHT22;54940;50.842;4.410;2023-04-24T13:27:01;17.10;99.90
68139;DHT22;54940;50.842;4.410;2023-04-24T13:29:27;16.80;99.90
68139;DHT22;54940;50.842;4.410;2023-04-24T13:31:54;16.90;99.90
68139;DHT22;54940;50.842;4.410;2023-04-24T13:34:24;16.70;99.90
68139;DHT22;54940;50.842;4.410;2023-04-24T13:36:52;16.40;99.90
68139;DHT22;54940;50.842;4.410;2023-04-24T13:39:20;16.30;99.90
68139;DHT22;54940;50.842;4.410;2023-04-24T13:41:46;16.40;99.90
68139;DHT22;54940;50.842;4.410;2023-04-24T13:44:17;16.40;99.90
68139;DHT22;54940;50.842;4.410;2023-04-24T13:46:44;16.60;99.90
68139;DHT22;54940;50.842;4.410;2023-04-24T13:49:11;16.60;99.90
68139;DHT22;54940;50.842;4.410;2023-04-24T13:51:38;16.70;99.90
68139;DHT22;54940;50.842;4.410;2023-04-24T13:54:04;16.80;99.90
68139;DHT22;54940;50.842;4.410;2023-04-24T13:56:29;16.70;99.90
68139;DHT22;54940;50.842;4.410;2023-04-24T13:58:56;16.50;99.90
68139;DHT22;54940;50.842;4.410;2023-04-24T14:01:22;16.30;99.90
68139;DHT22;54940;50.842;4.410;2023-04-24T14:03:53;16.50;99.90
68139;DHT22;54940;50.842;4.410;2023-04-24T14:06:20;16.90;99.90
68139;DHT22;54940;50.842;4.410;2023-04-24T14:08:46;17.00;99.90
68139;DHT22;54940;50.842;4.410;2023-04-24T14:11:12;17.20;99.90
68139;DHT22;54940;50.842;4.410;2023-04-24T14:13:38;17.00;99.90
68139;DHT22;54940;50.842;4.410;2023-04-24T14:16:04;16.90;99.90
68139;DHT22;54940;50.842;4.410;2023-04-24T14:18:30;17.00;99.90
68139;DHT22;54940;50.842;4.410;2023-04-24T14:20:55;16.80;99.90
68139;DHT22;54940;50.842;4.410;2023-04-24T14:23:21;17.00;99.90
68139;DHT22;54940;50.842;4.410;2023-04-24T14:25:49;16.60;99.90
68139;DHT22;54940;50.842;4.410;2023-04-24T14:28:18;16.20;99.90
68139;DHT22;54940;50.842;4.410;2023-04-24T14:30:44;15.90;99.90
68139;DHT22;54940;50.842;4.410;2023-04-24T14:33:10;15.70;99.90
68139;DHT22;54940;50.842;4.410;2023-04-24T14:35:40;15.50;99.90
68139;DHT22;54940;50.842;4.410;2023-04-24T14:38:11;15.30;99.90
68139;DHT22;54940;50.842;4.410;2023-04-24T14:40:40;15.30;99.90
68139;DHT22;54940;50.842;4.410;2023-04-24T14:43:08;15.40;99.90
68139;DHT22;54940;50.842;4.410;2023-04-24T14:45:33;15.40;99.90
68139;DHT22;54940;50.842;4.410;2023-04-24T14:47:59;15.30;99.90
68139;DHT22;54940;50.842;4.410;2023-04-24T14:50:25;15.10;99.90
68139;DHT22;54940;50.842;4.410;2023-04-24T14:52:54;14.90;99.90
68139;DHT22;54940;50.842;4.410;2023-04-24T14:55:23;14.90;99.90
68139;DHT22;54940;50.842;4.410;2023-04-24T14:57:48;14.90;99.90
68139;DHT22;54940;50.842;4.410;2023-04-24T15:00:14;14.80;99.90
68139;DHT22;54940;50.842;4.410;2023-04-24T15:02:42;14.70;99.90
68139;DHT22;54940;50.842;4.410;2023-04-24T15:05:10;14.70;99.90
68139;DHT22;54940;50.842;4.410;2023-04-24T15:07:35;14.80;99.90
68139;DHT22;54940;50.842;4.410;2023-04-24T15:10:02;15.00;99.90
68139;DHT22;54940;50.842;4.410;2023-04-24T15:12:27;15.10;99.90
68139;DHT22;54940;50.842;4.410;2023-04-24T15:14:54;14.90;99.90
68139;DHT22;54940;50.842;4.410;2023-04-24T15:17:20;14.80;99.90
68139;DHT22;54940;50.842;4.410;2023-04-24T15:19:45;14.70;99.90
68139;DHT22;54940;50.842;4.410;2023-04-24T15:22:11;14.50;99.90
68139;DHT22;54940;50.842;4.410;2023-04-24T15:24:42;14.40;99.90
68139;DHT22;54940;50.842;4.410;2023-04-24T15:27:10;14.00;99.90
68139;DHT22;54940;50.842;4.410;2023-04-24T15:29:36;13.80;99.90
68139;DHT22;54940;50.842;4.410;2023-04-24T15:32:02;13.70;99.90
68139;DHT22;54940;50.842;4.410;2023-04-24T15:34:28;13.70;99.90
68139;DHT22;54940;50.842;4.410;2023-04-24T15:36:54;13.70;99.90
68139;DHT22;54940;50.842;4.410;2023-04-24T15:39:22;13.90;99.90
68139;DHT22;54940;50.842;4.410;2023-04-24T15:41:49;14.00;99.90
68139;DHT22;54940;50.842;4.410;2023-04-24T15:44:15;14.00;99.90
68139;DHT22;54940;50.842;4.410;2023-04-24T15:46:41;14.00;99.90